Nearby METAR Reports

 

KHCR - Heber/Russ Mcdon, Utah, USA
Distance from station: SSW 18mi, 29km
Updated: Thu, 25-Apr-2024 8:15am MDT
Partly cloudy
Partly cloudy
 Wind from calm
Wind: Calm
Temperature: 48°F , 9°C
Dew Point: 30°F , -1°C
Humidity: 50%
Barometer: 29.87 inHg , 1011.5 hPa
Clouds: Partly cloudy
Visibility: 10 miles , 16 km
Cloud details: Partly cloudy 14000 ft
2024/04/25 14:15 KHCR 251415Z AUTO 00000KT 10SM SCT140 09/M01 A2987 RMK AO2 T00921006 $
KSLC - Salt Lake City, Utah, USA
Distance from station: W 35mi, 57km
Updated: Thu, 25-Apr-2024 7:54am MDT
Mostly cloudy
Mostly cloudy
 Wind from SSE
Wind: SSE 6 mph , 9 km/h
Temperature: 55°F , 13°C
Dew Point: 43°F , 6°C
Humidity: 63%
Barometer: 29.83 inHg , 1010.2 hPa
Clouds: Mostly cloudy
Visibility: 10 miles , 16 km
Cloud details: Partly cloudy 9000 ft
Mostly cloudy 11000 ft
Mostly cloudy 23000 ft
2024/04/25 13:54 KSLC 251354Z 15005KT 10SM SCT090 BKN110 BKN230 13/06 A2983 RMK AO2 SLP061 VIRGA CB DSNT NW T01330061
 
KU42 - Salt Lake Muni, Utah, USA
Distance from station: WSW 37mi, 59km
Updated: Thu, 25-Apr-2024 8:15am MDT
Partly cloudy
Partly cloudy
 Wind from W
Wind: W 6 mph , 9 km/h
Temperature: 55°F , 13°C
Dew Point: 43°F , 6°C
Humidity: 63%
Barometer: 29.85 inHg , 1010.8 hPa
Clouds: Partly cloudy
Visibility: 10 miles , 16 km
Cloud details: Partly cloudy 8000 ft
2024/04/25 14:15 KU42 251415Z AUTO 26005KT 10SM SCT080 13/06 A2985 RMK AO1 T01270055
KEVW - Evanston, Wyoming, USA
Distance from station: NNE 40mi, 64km
Updated: Thu, 25-Apr-2024 7:53am MDT
Partly cloudy
Partly cloudy
 Wind from NNW
Wind: NNW 6 mph , 9 km/h
Temperature: 45°F , 7°C
Wind Chill: 42°F , 6°C
Dew Point: 34°F , 1°C
Humidity: 66%
Barometer: 29.93 inHg , 1013.5 hPa
Clouds: Partly cloudy
Visibility: 10 miles , 16 km
Cloud details: Partly cloudy 8500 ft
2024/04/25 13:53 KEVW 251353Z AUTO 33005KT 10SM SCT085 07/01 A2993 RMK AO2 SLP067 T00720011
 
KPVU - Provo Muni, Utah, USA
Distance from station: SSW 41mi, 67km
Updated: Thu, 25-Apr-2024 8:17am MDT
Clear
Clear
 Wind from WNW
Wind: WNW 9 mph , 15 km/h
Temperature: 59°F , 15°C
Dew Point: 45°F , 7°C
Humidity: 59%
Barometer: 29.85 inHg , 1010.8 hPa
Clouds: Clear
Visibility: 10 miles , 16 km
2024/04/25 14:17 KPVU 251417Z 29008KT 10SM CLR 15/07 A2985 RMK AO2
KHIF - Hill Afb/Ogden, Utah, USA
Distance from station: NW 45mi, 72km
Updated: Thu, 25-Apr-2024 7:55am MDT
Partly cloudy
Partly cloudy
 Wind from SSE
Wind: SSE 10 mph , 17 km/h
Temperature: 55°F , 13°C
Dew Point: 43°F , 6°C
Humidity: 63%
Barometer: 29.82 inHg , 1009.8 hPa
Clouds: Partly cloudy
Visibility: 10 miles , 16 km
Cloud details: Partly cloudy 13000 ft
2024/04/25 13:55 KHIF 251355Z 16009KT 10SM SCT130 13/06 A2982 RMK AO2A SLP052 T01250056
 
KOGD - Ogden, Utah, USA
Distance from station: NW 50mi, 81km
Updated: Thu, 25-Apr-2024 7:53am MDT
Clear
Clear
 Wind from SSW
Wind: SSW 6 mph , 9 km/h
Temperature: 55°F , 13°C
Dew Point: 41°F , 5°C
Humidity: 59%
Barometer: 29.83 inHg , 1010.2 hPa
Clouds: Clear
Visibility: 10 miles , 16 km
2024/04/25 13:53 KOGD 251353Z 20005KT 10SM CLR 13/05 A2983 RMK AO2 SLP057 T01330050